createdAt,value
2023-05-19T00:01:13.664Z,99591.78
2023-05-19T00:03:48.986Z,99591.00
2023-05-19T00:06:16.245Z,99597.47
2023-05-19T00:08:43.098Z,99588.91
2023-05-19T00:11:11.672Z,99586.88
2023-05-19T00:13:38.444Z,99585.94
2023-05-19T00:16:06.336Z,99583.13
2023-05-19T00:18:33.469Z,99585.38
2023-05-19T00:21:00.229Z,99587.41
2023-05-19T00:23:26.890Z,99576.50
2023-05-19T00:25:54.106Z,99565.97
2023-05-19T00:28:22.237Z,99567.88
2023-05-19T00:30:48.946Z,99566.09
2023-05-19T00:33:15.710Z,99568.72
2023-05-19T00:35:42.369Z,99567.28
2023-05-19T00:38:09.055Z,99567.66
2023-05-19T00:40:36.525Z,99571.88
2023-05-19T00:43:05.513Z,99566.03
2023-05-19T00:45:33.971Z,99569.84
2023-05-19T00:48:00.697Z,99566.72
2023-05-19T00:50:28.414Z,99572.16
2023-05-19T00:52:55.775Z,99573.44
2023-05-19T00:55:23.318Z,99567.69
2023-05-19T00:57:50.474Z,99562.69
2023-05-19T01:00:17.501Z,99564.09
2023-05-19T01:02:45.787Z,99564.00
2023-05-19T01:05:12.737Z,99563.03
2023-05-19T01:07:40.029Z,99569.16
2023-05-19T01:10:07.293Z,99564.69
2023-05-19T01:12:34.544Z,99566.38
2023-05-19T01:15:02.812Z,99563.41
2023-05-19T01:17:31.096Z,99563.53
2023-05-19T01:20:06.905Z,99560.06
2023-05-19T01:22:55.009Z,99564.34
2023-05-19T01:25:36.894Z,99562.81
2023-05-19T01:28:16.024Z,99566.47
2023-05-19T01:30:45.499Z,99561.38
2023-05-19T01:33:17.026Z,99564.97
2023-05-19T01:35:44.247Z,99563.63
2023-05-19T01:38:11.929Z,99558.53
2023-05-19T01:40:41.967Z,99555.03
2023-05-19T01:43:10.020Z,99559.84
2023-05-19T01:45:37.210Z,99558.75
2023-05-19T01:48:08.426Z,99557.78
2023-05-19T01:50:38.499Z,99562.38
2023-05-19T01:53:05.280Z,99554.72
2023-05-19T01:55:35.167Z,99555.47
2023-05-19T01:58:06.857Z,99547.09
2023-05-19T02:00:40.714Z,99557.34
2023-05-19T02:03:15.499Z,99556.47
2023-05-19T02:05:49.298Z,99548.84
2023-05-19T02:08:20.543Z,99551.91
2023-05-19T02:10:51.495Z,99556.03
2023-05-19T02:13:20.564Z,99557.47
2023-05-19T02:15:48.717Z,99563.91
2023-05-19T02:18:18.289Z,99568.09
2023-05-19T02:20:49.557Z,99568.09
2023-05-19T02:23:16.293Z,99572.00
2023-05-19T02:25:43.021Z,99572.19
2023-05-19T02:28:09.822Z,99565.06
2023-05-19T02:30:36.459Z,99568.09
2023-05-19T02:33:03.261Z,99571.69
2023-05-19T02:35:31.361Z,99570.78
2023-05-19T02:37:58.859Z,99565.16
2023-05-19T02:40:25.478Z,99564.47
2023-05-19T02:42:52.200Z,99567.72
2023-05-19T02:45:18.846Z,99572.38
2023-05-19T02:47:45.626Z,99563.16
2023-05-19T02:50:12.469Z,99575.56
2023-05-19T02:52:40.668Z,99568.88
2023-05-19T02:55:07.907Z,99565.47
2023-05-19T02:57:35.062Z,99559.00
2023-05-19T03:00:05.897Z,99565.75
2023-05-19T03:02:34.273Z,99570.41
2023-05-19T03:05:03.246Z,99570.69
2023-05-19T03:07:29.934Z,99576.53
2023-05-19T03:09:57.976Z,99571.31
2023-05-19T03:12:24.924Z,99576.94
2023-05-19T03:14:51.662Z,99575.41
2023-05-19T03:17:18.380Z,99576.16
2023-05-19T03:19:45.099Z,99569.84
2023-05-19T03:22:11.923Z,99578.38
2023-05-19T03:24:38.666Z,99578.50
2023-05-19T03:27:06.964Z,99575.78
2023-05-19T03:29:33.737Z,99577.16
2023-05-19T03:32:01.781Z,99576.72
2023-05-19T03:34:28.712Z,99567.91
2023-05-19T03:36:56.087Z,99574.63
2023-05-19T03:39:23.223Z,99577.75
2023-05-19T03:41:50.184Z,99574.63
2023-05-19T03:44:18.412Z,99575.22
2023-05-19T03:46:45.288Z,99578.50
2023-05-19T03:49:15.188Z,99573.91
2023-05-19T03:52:00.140Z,99572.66
2023-05-19T03:54:35.969Z,99571.97
2023-05-19T03:57:02.961Z,99580.16
2023-05-19T03:59:31.948Z,99582.56
2023-05-19T04:01:59.488Z,99574.97
2023-05-19T04:04:27.007Z,99582.47
2023-05-19T04:06:53.817Z,99576.56
2023-05-19T04:09:20.607Z,99582.13
2023-05-19T04:11:47.376Z,99584.75
2023-05-19T04:14:14.118Z,99585.69
2023-05-19T04:16:42.200Z,99590.94
2023-05-19T04:19:08.960Z,99596.59
2023-05-19T04:21:35.870Z,99596.06
2023-05-19T04:24:02.641Z,99591.53
2023-05-19T04:26:31.209Z,99598.25
2023-05-19T04:28:58.207Z,99598.13
2023-05-19T04:31:24.950Z,99595.22
2023-05-19T04:33:53.592Z,99598.72
2023-05-19T04:36:21.780Z,99589.19
2023-05-19T04:38:54.862Z,99591.63
2023-05-19T04:41:23.572Z,99583.00
2023-05-19T04:43:50.453Z,99587.03
2023-05-19T04:46:18.644Z,99586.13
2023-05-19T04:48:45.655Z,99577.38
2023-05-19T04:51:14.366Z,99582.72
2023-05-19T04:53:41.633Z,99581.34
2023-05-19T04:56:13.678Z,99573.50
2023-05-19T04:58:42.034Z,99582.06
2023-05-19T05:01:09.658Z,99573.56
2023-05-19T05:03:37.354Z,99581.81
2023-05-19T05:06:04.939Z,99576.41
2023-05-19T05:08:33.519Z,99583.31
2023-05-19T05:11:00.474Z,99585.31
2023-05-19T05:13:27.929Z,99590.22
2023-05-19T05:15:56.245Z,99586.13
2023-05-19T05:18:23.479Z,99584.03
2023-05-19T05:20:50.356Z,99587.66
2023-05-19T05:23:17.369Z,99586.94
2023-05-19T05:25:48.224Z,99588.78
2023-05-19T05:28:16.550Z,99593.00
2023-05-19T05:30:44.931Z,99585.75
2023-05-19T05:33:13.676Z,99588.50
2023-05-19T05:35:41.459Z,99593.69
2023-05-19T05:38:11.607Z,99586.63
2023-05-19T05:40:38.731Z,99587.41
2023-05-19T05:43:07.311Z,99588.41
2023-05-19T05:45:38.481Z,99585.50
2023-05-19T05:48:06.476Z,99582.16
2023-05-19T05:50:33.962Z,99582.31
2023-05-19T05:53:03.687Z,99583.50
2023-05-19T05:55:31.279Z,99577.31
2023-05-19T05:58:02.109Z,99573.56
2023-05-19T06:00:30.722Z,99576.84
2023-05-19T06:02:59.274Z,99574.38
2023-05-19T06:05:26.516Z,99573.66
2023-05-19T06:07:54.341Z,99570.91
2023-05-19T06:10:25.042Z,99574.22
2023-05-19T06:12:53.203Z,99574.84
2023-05-19T06:15:21.504Z,99566.63
2023-05-19T06:18:03.482Z,99563.78
2023-05-19T06:20:30.439Z,99556.53
2023-05-19T06:22:58.043Z,99560.59
2023-05-19T06:25:26.923Z,99566.72
2023-05-19T06:27:53.640Z,99559.66
2023-05-19T06:30:22.896Z,99555.69
2023-05-19T06:33:02.082Z,99546.53
2023-05-19T06:35:30.817Z,99551.44
2023-05-19T06:37:57.824Z,99553.09
2023-05-19T06:40:24.734Z,99549.00
2023-05-19T06:42:51.462Z,99556.81
2023-05-19T06:45:28.719Z,99550.66
2023-05-19T06:47:58.419Z,99553.63
2023-05-19T06:50:25.703Z,99543.00
2023-05-19T06:52:53.828Z,99549.13
2023-05-19T06:55:20.575Z,99545.34
2023-05-19T06:57:49.100Z,99544.09
2023-05-19T07:00:18.791Z,99537.66
2023-05-19T07:02:48.699Z,99543.28
2023-05-19T07:05:15.396Z,99549.25
2023-05-19T07:07:46.535Z,99548.22
2023-05-19T07:10:18.940Z,99551.22
2023-05-19T07:12:45.754Z,99548.84
2023-05-19T07:15:12.575Z,99546.69
2023-05-19T07:17:39.364Z,99551.13
2023-05-19T07:20:06.988Z,99547.94
2023-05-19T07:22:36.661Z,99544.50
2023-05-19T07:25:03.389Z,99554.16
2023-05-19T07:27:31.755Z,99554.28
2023-05-19T07:29:58.767Z,99551.88
2023-05-19T07:32:25.709Z,99557.09
2023-05-19T07:34:52.562Z,99554.59
2023-05-19T07:37:19.329Z,99556.44
2023-05-19T07:39:46.014Z,99558.06
2023-05-19T07:42:12.764Z,99555.75
2023-05-19T07:44:40.773Z,99558.50
2023-05-19T07:47:07.458Z,99552.34
2023-05-19T07:49:34.225Z,99555.88
2023-05-19T07:52:01.283Z,99543.94
2023-05-19T07:54:28.016Z,99546.88
2023-05-19T07:56:54.684Z,99545.16
2023-05-19T07:59:21.334Z,99546.72
2023-05-19T08:01:49.448Z,99540.72
2023-05-19T08:04:16.368Z,99529.59
2023-05-19T08:06:44.551Z,99524.66
2023-05-19T08:09:12.073Z,99521.97
2023-05-19T08:11:38.963Z,99520.88
2023-05-19T08:14:05.774Z,99520.34
2023-05-19T08:16:32.470Z,99519.88
2023-05-19T08:19:02.723Z,99520.06
2023-05-19T08:21:29.644Z,99521.41
2023-05-19T08:23:57.211Z,99514.75
2023-05-19T08:26:23.994Z,99518.53
2023-05-19T08:28:50.723Z,99508.78
2023-05-19T08:31:18.534Z,99508.22
2023-05-19T08:33:45.813Z,99507.47
2023-05-19T08:36:13.842Z,99505.69
2023-05-19T08:38:40.636Z,99500.47
2023-05-19T08:41:07.650Z,99500.34
2023-05-19T08:43:34.433Z,99482.19
2023-05-19T08:46:01.190Z,99492.75
2023-05-19T08:48:29.244Z,99490.25
2023-05-19T08:51:00.982Z,99480.69
2023-05-19T08:53:34.784Z,99474.16
2023-05-19T08:56:02.270Z,99475.72
2023-05-19T08:58:29.143Z,99467.72
2023-05-19T09:00:56.810Z,99466.34
2023-05-19T09:03:24.204Z,99473.03
2023-05-19T09:05:51.337Z,99468.72
2023-05-19T09:08:18.480Z,99460.53
2023-05-19T09:10:46.568Z,99470.66
2023-05-19T09:13:13.259Z,99459.94
2023-05-19T09:15:41.357Z,99467.28
2023-05-19T09:18:08.969Z,99453.34
2023-05-19T09:20:39.687Z,99452.81
2023-05-19T09:23:06.536Z,99453.66
2023-05-19T09:25:33.714Z,99449.03
2023-05-19T09:28:02.092Z,99450.63
2023-05-19T09:30:28.764Z,99441.28
2023-05-19T09:32:55.704Z,99441.50
2023-05-19T09:35:22.625Z,99438.25
2023-05-19T09:37:49.297Z,99445.56
2023-05-19T09:40:16.332Z,99438.50
2023-05-19T09:42:44.209Z,99430.78
2023-05-19T09:45:12.262Z,99437.94
2023-05-19T09:47:39.580Z,99437.03
2023-05-19T09:50:08.573Z,99444.66
2023-05-19T09:52:35.883Z,99431.72
2023-05-19T09:55:04.312Z,99437.03
2023-05-19T09:57:34.298Z,99437.25
2023-05-19T10:00:02.233Z,99431.50
2023-05-19T10:02:32.985Z,99433.56
2023-05-19T10:05:00.601Z,99425.28
2023-05-19T10:07:27.433Z,99431.25
2023-05-19T10:09:55.420Z,99433.91
2023-05-19T10:12:25.402Z,99422.81
2023-05-19T10:14:54.896Z,99422.25
2023-05-19T10:17:22.235Z,99420.56
2023-05-19T10:19:50.799Z,99417.28
2023-05-19T10:22:17.533Z,99409.00
2023-05-19T10:24:44.156Z,99412.25
2023-05-19T10:27:12.068Z,99410.66
2023-05-19T10:29:41.090Z,99403.72
2023-05-19T10:32:11.576Z,99418.09
2023-05-19T10:35:11.466Z,99417.25
2023-05-19T10:37:45.031Z,99411.09
2023-05-19T10:40:15.918Z,99413.44
2023-05-19T10:42:46.221Z,99414.56
2023-05-19T10:45:14.788Z,99405.19
2023-05-19T10:47:41.545Z,99406.03
2023-05-19T10:50:10.122Z,99406.88
2023-05-19T10:52:37.655Z,99407.13
2023-05-19T10:55:04.934Z,99397.13
2023-05-19T10:57:34.719Z,99392.81
2023-05-19T11:00:11.790Z,99384.56
2023-05-19T11:02:42.371Z,99395.56
2023-05-19T11:05:12.908Z,99403.84
2023-05-19T11:07:41.566Z,99407.44
2023-05-19T11:10:08.626Z,99402.09
2023-05-19T11:12:43.046Z,99399.41
2023-05-19T11:15:13.552Z,99398.19
2023-05-19T11:17:41.838Z,99394.72
2023-05-19T11:20:11.398Z,99387.72
2023-05-19T11:22:39.952Z,99393.19
2023-05-19T11:25:09.079Z,99388.28
2023-05-19T11:27:38.184Z,99397.22
2023-05-19T11:30:19.996Z,99391.03
2023-05-19T11:32:48.001Z,99395.69
2023-05-19T11:35:15.726Z,99387.44
2023-05-19T11:37:44.117Z,99388.66
2023-05-19T11:40:11.001Z,99385.41
2023-05-19T11:42:37.838Z,99379.66
2023-05-19T11:45:05.072Z,99381.09
2023-05-19T11:47:46.468Z,99382.53
2023-05-19T11:50:18.928Z,99379.75
2023-05-19T11:52:47.676Z,99374.00
2023-05-19T11:55:15.747Z,99375.88
2023-05-19T11:57:56.073Z,99375.91
2023-05-19T12:00:31.123Z,99373.44
2023-05-19T12:02:58.092Z,99378.97
2023-05-19T12:05:25.708Z,99382.72
2023-05-19T12:07:54.169Z,99368.28
2023-05-19T12:10:21.849Z,99379.66
2023-05-19T12:12:49.831Z,99374.34
2023-05-19T12:15:18.538Z,99370.09
2023-05-19T12:17:46.677Z,99360.59
2023-05-19T12:20:13.551Z,99366.81
2023-05-19T12:22:40.396Z,99377.94
2023-05-19T12:25:09.056Z,99374.94
2023-05-19T12:27:37.112Z,99373.88
2023-05-19T12:30:04.470Z,99374.81
2023-05-19T12:32:33.946Z,99372.50
2023-05-19T12:35:02.309Z,99376.31
2023-05-19T12:37:33.243Z,99377.88
2023-05-19T12:40:00.076Z,99369.72
2023-05-19T12:42:32.598Z,99367.47
2023-05-19T12:45:00.894Z,99371.13
2023-05-19T12:47:31.227Z,99363.03
2023-05-19T12:50:01.539Z,99372.03
2023-05-19T12:52:32.659Z,99373.03
2023-05-19T12:55:00.255Z,99370.94
2023-05-19T12:57:32.142Z,99375.69
2023-05-19T13:00:00.449Z,99359.81
2023-05-19T13:02:27.228Z,99364.31
2023-05-19T13:04:54.401Z,99358.13
2023-05-19T13:07:21.076Z,99362.03
2023-05-19T13:09:48.287Z,99362.00
2023-05-19T13:12:14.944Z,99358.72
2023-05-19T13:14:44.276Z,99362.41
2023-05-19T13:17:10.984Z,99355.00
2023-05-19T13:19:37.919Z,99350.06
2023-05-19T13:22:04.661Z,99357.94
2023-05-19T13:24:31.368Z,99355.09
2023-05-19T13:26:58.074Z,99358.41
2023-05-19T13:29:24.856Z,99351.75
2023-05-19T13:31:52.881Z,99350.72
2023-05-19T13:34:19.792Z,99347.81
2023-05-19T13:36:48.242Z,99353.81
2023-05-19T13:39:15.650Z,99350.56
2023-05-19T13:41:42.321Z,99350.91
2023-05-19T13:44:09.120Z,99346.78
2023-05-19T13:46:44.666Z,99341.22
2023-05-19T13:49:14.582Z,99343.06
2023-05-19T13:51:42.670Z,99342.28
2023-05-19T13:54:09.365Z,99343.78
2023-05-19T13:56:35.986Z,99343.13
2023-05-19T13:59:04.159Z,99345.59
2023-05-19T14:01:30.952Z,99339.81
2023-05-19T14:03:57.810Z,99333.88
2023-05-19T14:06:26.164Z,99340.44
2023-05-19T14:08:52.857Z,99340.91
2023-05-19T14:11:19.969Z,99340.50
2023-05-19T14:13:48.747Z,99340.59
2023-05-19T14:16:16.292Z,99332.94
2023-05-19T14:18:43.321Z,99335.88
2023-05-19T14:21:09.929Z,99330.13
2023-05-19T14:23:38.132Z,99318.25
2023-05-19T14:26:05.278Z,99314.41
2023-05-19T14:28:32.033Z,99318.50
2023-05-19T14:30:58.751Z,99330.88
2023-05-19T14:33:25.601Z,99321.41
2023-05-19T14:35:52.640Z,99324.44
2023-05-19T14:38:19.589Z,99322.81
2023-05-19T14:40:48.560Z,99327.13
2023-05-19T14:43:15.557Z,99324.22
2023-05-19T14:45:42.435Z,99325.41
2023-05-19T14:48:10.994Z,99328.69
2023-05-19T14:50:37.874Z,99326.19
2023-05-19T14:53:04.562Z,99320.50
2023-05-19T14:55:31.279Z,99316.34
2023-05-19T14:57:59.339Z,99330.97
2023-05-19T15:00:26.328Z,99322.91
2023-05-19T15:02:53.010Z,99313.25
2023-05-19T15:05:19.954Z,99314.53
2023-05-19T15:07:46.626Z,99313.34
2023-05-19T15:10:13.343Z,99307.31
2023-05-19T15:12:39.991Z,99309.00
2023-05-19T15:15:09.050Z,99306.84
2023-05-19T15:17:35.806Z,99315.53
2023-05-19T15:20:02.700Z,99307.78
2023-05-19T15:22:29.426Z,99305.28
2023-05-19T15:24:56.157Z,99304.66
2023-05-19T15:27:23.124Z,99305.44
2023-05-19T15:29:50.038Z,99307.66
2023-05-19T15:32:18.352Z,99302.56
2023-05-19T15:34:45.627Z,99305.06
2023-05-19T15:37:12.324Z,99315.53
2023-05-19T15:39:39.037Z,99308.13
2023-05-19T15:42:06.051Z,99311.50
2023-05-19T15:44:33.055Z,99306.13
2023-05-19T15:46:59.833Z,99308.63
2023-05-19T15:49:27.976Z,99296.56
2023-05-19T15:51:54.645Z,99298.88
2023-05-19T15:54:21.374Z,99299.28
2023-05-19T15:56:48.096Z,99306.25
2023-05-19T15:59:14.811Z,99300.31
2023-05-19T16:01:41.546Z,99289.78
2023-05-19T16:04:08.376Z,99277.03
2023-05-19T16:06:36.462Z,99282.75
2023-05-19T16:09:03.551Z,99275.59
2023-05-19T16:11:30.403Z,99283.81
2023-05-19T16:13:57.180Z,99279.44
2023-05-19T16:16:24.047Z,99282.56
2023-05-19T16:18:50.952Z,99273.78
2023-05-19T16:21:17.716Z,99283.84
2023-05-19T16:23:46.032Z,99282.09
2023-05-19T16:26:12.857Z,99281.09
2023-05-19T16:28:39.559Z,99274.72
2023-05-19T16:31:06.247Z,99270.53
2023-05-19T16:33:32.914Z,99274.19
2023-05-19T16:35:59.985Z,99264.75
2023-05-19T16:38:29.602Z,99262.06
2023-05-19T16:40:57.793Z,99267.88
2023-05-19T16:43:24.613Z,99271.09
2023-05-19T16:45:51.281Z,99264.34
2023-05-19T16:48:18.190Z,99259.59
2023-05-19T16:50:47.480Z,99263.38
2023-05-19T16:53:14.159Z,99268.34
2023-05-19T16:55:40.915Z,99264.50
2023-05-19T16:58:10.638Z,99269.06
2023-05-19T17:00:37.400Z,99271.91
2023-05-19T17:03:04.296Z,99272.44
2023-05-19T17:05:32.025Z,99266.16
2023-05-19T17:07:58.669Z,99271.47
2023-05-19T17:10:25.484Z,99273.78
2023-05-19T17:12:52.251Z,99274.94
2023-05-19T17:15:20.431Z,99278.00
2023-05-19T17:17:47.187Z,99279.41
2023-05-19T17:20:13.888Z,99290.78
2023-05-19T17:22:40.842Z,99283.59
2023-05-19T17:25:08.699Z,99293.03
2023-05-19T17:27:35.461Z,99290.94
2023-05-19T17:30:02.164Z,99284.09
2023-05-19T17:32:35.765Z,99283.84
2023-05-19T17:35:03.700Z,99280.25
2023-05-19T17:37:30.421Z,99287.25
2023-05-19T17:39:57.064Z,99280.16
2023-05-19T17:42:23.746Z,99275.84
2023-05-19T17:44:50.507Z,99273.06
2023-05-19T17:47:17.464Z,99278.97
2023-05-19T17:49:46.050Z,99286.34
2023-05-19T17:52:12.991Z,99286.72
2023-05-19T17:54:40.048Z,99294.38
2023-05-19T17:57:11.413Z,99295.84
2023-05-19T17:59:38.446Z,99299.63
2023-05-19T18:02:05.578Z,99300.19
2023-05-19T18:04:32.623Z,99294.47
2023-05-19T18:07:02.529Z,99296.75
2023-05-19T18:09:30.284Z,99299.72
2023-05-19T18:11:57.049Z,99302.41
2023-05-19T18:14:23.819Z,99304.44
2023-05-19T18:16:50.697Z,99299.47
2023-05-19T18:19:17.509Z,99306.44
2023-05-19T18:21:44.207Z,99301.03
2023-05-19T18:24:12.361Z,99303.44
2023-05-19T18:26:41.846Z,99306.28
2023-05-19T18:29:08.921Z,99296.22
2023-05-19T18:31:35.803Z,99290.06
2023-05-19T18:34:04.306Z,99289.81
2023-05-19T18:36:31.458Z,99299.09
2023-05-19T18:38:59.108Z,99305.81
2023-05-19T18:41:27.219Z,99290.97
2023-05-19T18:43:54.110Z,99299.06
2023-05-19T18:46:20.898Z,99299.91
2023-05-19T18:48:49.871Z,99300.97
2023-05-19T18:51:18.692Z,99302.00
2023-05-19T18:53:47.202Z,99301.50
2023-05-19T18:56:15.872Z,99307.59
2023-05-19T18:58:44.146Z,99307.50
2023-05-19T19:01:10.960Z,99314.19
2023-05-19T19:03:37.963Z,99317.38
2023-05-19T19:06:04.727Z,99323.63
2023-05-19T19:08:31.397Z,99310.00
2023-05-19T19:11:01.074Z,99314.09
2023-05-19T19:13:27.992Z,99312.78
2023-05-19T19:15:56.143Z,99310.00
2023-05-19T19:18:22.854Z,99312.91
2023-05-19T19:20:49.653Z,99307.47
2023-05-19T19:23:16.460Z,99312.97
2023-05-19T19:25:43.129Z,99312.66
2023-05-19T19:28:10.547Z,99308.06
2023-05-19T19:30:37.343Z,99312.38
2023-05-19T19:33:06.806Z,99308.88
2023-05-19T19:35:33.902Z,99313.84
2023-05-19T19:38:00.841Z,99317.53
2023-05-19T19:40:27.806Z,99321.69
2023-05-19T19:42:54.462Z,99313.38
2023-05-19T19:45:21.206Z,99314.72
2023-05-19T19:47:48.009Z,99312.22
2023-05-19T19:50:16.538Z,99318.44
2023-05-19T19:52:43.224Z,99318.91
2023-05-19T19:55:10.050Z,99309.44
2023-05-19T19:57:36.897Z,99314.25
2023-05-19T20:00:07.758Z,99312.63
2023-05-19T20:02:35.640Z,99317.81
2023-05-19T20:05:02.554Z,99327.81
2023-05-19T20:07:32.453Z,99325.97
2023-05-19T20:09:59.808Z,99322.50
2023-05-19T20:12:26.658Z,99326.53
2023-05-19T20:14:53.361Z,99331.84
2023-05-19T20:17:20.158Z,99327.16
2023-05-19T20:19:47.027Z,99329.34
2023-05-19T20:22:13.939Z,99331.66
2023-05-19T20:24:42.029Z,99337.16
2023-05-19T20:27:09.430Z,99323.84
2023-05-19T20:29:36.743Z,99329.53
2023-05-19T20:32:03.527Z,99329.84
2023-05-19T20:34:30.288Z,99323.22
2023-05-19T20:36:57.104Z,99323.22
2023-05-19T20:39:23.783Z,99329.91
2023-05-19T20:41:51.865Z,99329.91
2023-05-19T20:44:18.574Z,99332.56
2023-05-19T20:46:45.727Z,99328.53
2023-05-19T20:49:12.496Z,99325.25
2023-05-19T20:51:39.241Z,99320.75
2023-05-19T20:54:07.325Z,99319.59
2023-05-19T20:56:34.244Z,99320.91
2023-05-19T20:59:02.723Z,99327.22
2023-05-19T21:01:30.182Z,99326.75
2023-05-19T21:03:56.843Z,99328.59
2023-05-19T21:06:23.730Z,99329.75
2023-05-19T21:08:50.613Z,99326.94
2023-05-19T21:11:17.280Z,99326.25
2023-05-19T21:13:44.030Z,99322.94
2023-05-19T21:16:12.122Z,99336.91
2023-05-19T21:18:38.832Z,99328.28
2023-05-19T21:21:05.621Z,99329.47
2023-05-19T21:23:32.332Z,99324.47
2023-05-19T21:26:00.278Z,99329.97
2023-05-19T21:28:26.980Z,99329.31
2023-05-19T21:30:53.855Z,99332.47
2023-05-19T21:33:22.172Z,99338.69
2023-05-19T21:35:48.968Z,99324.69
2023-05-19T21:38:23.771Z,99330.19
2023-05-19T21:40:51.288Z,99330.53
2023-05-19T21:43:18.009Z,99316.22
2023-05-19T21:45:44.701Z,99320.06
2023-05-19T21:48:11.521Z,99323.72
2023-05-19T21:50:39.637Z,99314.75
2023-05-19T21:53:06.506Z,99315.41
2023-05-19T21:55:33.492Z,99307.59
2023-05-19T21:58:02.357Z,99311.09
2023-05-19T22:00:29.572Z,99310.25
2023-05-19T22:02:56.393Z,99315.75
2023-05-19T22:05:23.224Z,99306.13
2023-05-19T22:07:51.264Z,99306.78
2023-05-19T22:10:18.018Z,99297.13
2023-05-19T22:12:44.681Z,99291.00
2023-05-19T22:15:13.304Z,99293.47
2023-05-19T22:17:40.144Z,99294.81
2023-05-19T22:20:07.340Z,99283.78
2023-05-19T22:22:34.283Z,99284.94
2023-05-19T22:25:02.427Z,99283.13
2023-05-19T22:27:29.081Z,99283.13
2023-05-19T22:29:55.753Z,99277.63
2023-05-19T22:32:22.476Z,99274.13
2023-05-19T22:34:49.247Z,99277.63
2023-05-19T22:37:15.990Z,99279.44
2023-05-19T22:39:42.728Z,99277.47
2023-05-19T22:42:11.136Z,99274.97
2023-05-19T22:44:37.844Z,99274.28
2023-05-19T22:47:04.845Z,99274.47
2023-05-19T22:49:31.706Z,99266.69
2023-05-19T22:51:58.412Z,99269.81
2023-05-19T22:54:25.189Z,99267.00
2023-05-19T22:56:51.874Z,99257.00
2023-05-19T22:59:20.102Z,99257.69
2023-05-19T23:01:47.122Z,99258.88
2023-05-19T23:04:14.189Z,99250.03
2023-05-19T23:06:41.476Z,99245.72
2023-05-19T23:09:08.222Z,99245.06
2023-05-19T23:11:35.972Z,99248.91
2023-05-19T23:14:02.722Z,99244.59
2023-05-19T23:16:31.012Z,99245.22
2023-05-19T23:18:57.749Z,99247.25
2023-05-19T23:21:24.506Z,99249.22
2023-05-19T23:23:51.381Z,99244.91
2023-05-19T23:26:18.096Z,99242.25
2023-05-19T23:28:44.773Z,99234.94
2023-05-19T23:31:11.676Z,99224.94
2023-05-19T23:33:39.711Z,99226.13
2023-05-19T23:36:10.028Z,99230.81
2023-05-19T23:38:37.453Z,99230.44
2023-05-19T23:41:04.993Z,99226.97
2023-05-19T23:43:32.816Z,99223.00
2023-05-19T23:45:59.746Z,99224.34
2023-05-19T23:48:27.198Z,99223.34
2023-05-19T23:50:55.463Z,99225.53
2023-05-19T23:53:22.414Z,99211.38
2023-05-19T23:55:49.163Z,99206.34
2023-05-19T23:58:16.128Z,99204.72
